createdAt,value
2023-05-10T00:01:03.896Z,15.79
2023-05-10T00:04:03.367Z,15.75
2023-05-10T00:06:02.528Z,15.64
2023-05-10T00:07:35.268Z,15.49
2023-05-10T00:13:07.500Z,15.24
2023-05-10T00:18:07.980Z,15.27
2023-05-10T00:22:04.756Z,15.31
2023-05-10T00:23:33.997Z,15.31
2023-05-10T00:25:25.431Z,15.28
2023-05-10T00:27:27.999Z,15.28
2023-05-10T00:28:55.958Z,15.37
2023-05-10T00:31:17.220Z,15.43
2023-05-10T00:33:17.761Z,15.47
2023-05-10T00:34:45.928Z,15.52
2023-05-10T00:35:45.893Z,15.55
2023-05-10T00:37:54.476Z,15.51
2023-05-10T00:41:42.204Z,15.49
2023-05-10T00:44:14.313Z,15.36
2023-05-10T00:46:14.085Z,15.42
2023-05-10T00:48:52.228Z,15.42
2023-05-10T00:52:12.051Z,15.31
2023-05-10T00:56:30.045Z,15.37
2023-05-10T00:59:08.084Z,15.33
2023-05-10T01:00:58.848Z,15.22
2023-05-10T01:02:58.517Z,15.10
2023-05-10T01:04:28.149Z,15.10
2023-05-10T01:05:57.280Z,15.17
2023-05-10T01:09:09.902Z,15.19
2023-05-10T01:11:42.162Z,15.15
2023-05-10T01:14:21.593Z,15.17
2023-05-10T01:17:33.495Z,15.07
2023-05-10T01:20:52.535Z,15.14
2023-05-10T01:23:21.836Z,15.11
2023-05-10T01:27:50.468Z,15.09
2023-05-10T01:37:57.256Z,15.02
2023-05-10T01:40:34.548Z,15.03
2023-05-10T01:42:26.067Z,14.99
2023-05-10T01:46:24.325Z,14.97
2023-05-10T01:47:53.902Z,14.99
2023-05-10T01:49:43.785Z,14.92
2023-05-10T01:51:13.278Z,15.00
2023-05-10T01:54:44.398Z,15.02
2023-05-10T01:56:14.100Z,15.06
2023-05-10T01:58:03.289Z,15.03
2023-05-10T02:00:34.954Z,14.99
2023-05-10T02:02:42.172Z,14.99
2023-05-10T02:05:46.481Z,15.02
2023-05-10T02:07:15.765Z,14.99
2023-05-10T02:08:59.056Z,14.92
2023-05-10T02:10:34.048Z,14.97
2023-05-10T02:12:39.323Z,15.00
2023-05-10T02:13:38.468Z,14.96
2023-05-10T02:14:38.477Z,14.94
2023-05-10T02:23:51.443Z,14.94
2023-05-10T02:26:57.004Z,14.92
2023-05-10T02:31:04.120Z,14.94
2023-05-10T02:36:49.587Z,15.00
2023-05-10T02:38:19.723Z,15.00
2023-05-10T02:41:04.183Z,14.97
2023-05-10T02:43:57.292Z,14.89
2023-05-10T02:47:06.140Z,14.91
2023-05-10T02:48:45.632Z,14.91
2023-05-10T02:51:32.996Z,14.84
2023-05-10T02:53:21.821Z,14.89
2023-05-10T02:55:53.076Z,14.92
2023-05-10T03:04:09.836Z,14.81
2023-05-10T03:05:40.373Z,14.84
2023-05-10T03:07:30.391Z,14.86
2023-05-10T03:09:30.251Z,14.84
2023-05-10T03:14:46.956Z,14.78
2023-05-10T03:20:17.164Z,14.81
2023-05-10T03:24:02.667Z,14.79
2023-05-10T03:30:43.456Z,14.82
2023-05-10T03:32:14.295Z,14.82
2023-05-10T03:36:40.413Z,14.79
2023-05-10T03:38:10.303Z,14.78
2023-05-10T03:39:39.517Z,14.79
2023-05-10T03:43:59.222Z,14.84
2023-05-10T03:45:27.000Z,14.85
2023-05-10T03:47:27.150Z,14.82
2023-05-10T03:50:49.430Z,14.89
2023-05-10T03:52:50.200Z,14.92
2023-05-10T03:56:40.337Z,14.94
2023-05-10T03:58:09.242Z,14.92
2023-05-10T04:02:16.987Z,14.89
2023-05-10T04:05:34.214Z,14.94
2023-05-10T04:09:27.174Z,14.96
2023-05-10T04:10:57.057Z,14.97
2023-05-10T04:12:28.934Z,15.00
2023-05-10T04:14:24.834Z,15.00
2023-05-10T04:17:37.024Z,14.97
2023-05-10T04:19:05.239Z,15.00
2023-05-10T04:20:51.961Z,15.04
2023-05-10T04:26:20.555Z,15.02
2023-05-10T04:27:50.470Z,15.04
2023-05-10T04:29:20.484Z,15.06
2023-05-10T04:33:39.903Z,15.06
2023-05-10T04:36:08.919Z,15.07
2023-05-10T04:40:17.801Z,15.11
2023-05-10T04:44:47.640Z,15.10
2023-05-10T04:47:12.715Z,15.18
2023-05-10T04:49:02.908Z,15.21
2023-05-10T04:51:32.794Z,15.22
2023-05-10T04:54:04.663Z,15.22
2023-05-10T04:56:23.592Z,15.09
2023-05-10T05:00:11.405Z,15.18
2023-05-10T05:01:41.938Z,15.22
2023-05-10T05:04:52.427Z,15.21
2023-05-10T05:06:21.327Z,15.22
2023-05-10T05:07:51.264Z,15.28
2023-05-10T05:10:11.806Z,15.28
2023-05-10T05:11:41.690Z,15.28
2023-05-10T05:13:10.641Z,15.31
2023-05-10T05:15:58.171Z,15.35
2023-05-10T05:19:18.682Z,15.33
2023-05-10T05:23:19.132Z,15.33
2023-05-10T05:27:20.253Z,15.28
2023-05-10T05:30:45.441Z,15.24
2023-05-10T05:31:43.727Z,15.21
2023-05-10T05:33:06.445Z,15.22
2023-05-10T05:33:43.509Z,15.27
2023-05-10T05:35:22.327Z,15.24
2023-05-10T05:40:42.042Z,15.43
2023-05-10T05:43:29.944Z,15.37
2023-05-10T05:46:12.373Z,15.43
2023-05-10T05:49:58.487Z,15.54
2023-05-10T05:53:30.245Z,15.55
2023-05-10T05:54:58.633Z,15.55
2023-05-10T05:59:37.540Z,15.37
2023-05-10T06:01:09.189Z,15.42
2023-05-10T06:05:25.251Z,15.52
2023-05-10T06:10:46.373Z,15.31
2023-05-10T06:14:51.155Z,15.55
2023-05-10T06:18:28.283Z,15.59
2023-05-10T06:21:11.781Z,15.57
2023-05-10T06:22:41.265Z,15.47
2023-05-10T06:24:11.836Z,15.52
2023-05-10T06:26:27.745Z,15.55
2023-05-10T06:27:57.714Z,15.58
2023-05-10T06:34:54.367Z,15.58
2023-05-10T06:37:25.071Z,15.65
2023-05-10T06:39:12.335Z,15.68
2023-05-10T06:40:42.699Z,15.70
2023-05-10T06:42:12.333Z,15.59
2023-05-10T06:45:14.488Z,15.68
2023-05-10T06:49:04.634Z,15.65
2023-05-10T06:52:20.519Z,15.70
2023-05-10T06:55:49.260Z,15.79
2023-05-10T06:57:31.177Z,15.75
2023-05-10T06:58:50.274Z,15.82
2023-05-10T07:00:49.102Z,15.86
2023-05-10T07:03:09.666Z,15.86
2023-05-10T07:07:50.970Z,16.10
2023-05-10T07:10:38.711Z,16.24
2023-05-10T07:12:09.563Z,16.36
2023-05-10T07:14:28.660Z,16.29
2023-05-10T07:17:21.120Z,16.31
2023-05-10T07:19:40.417Z,16.41
2023-05-10T07:20:50.252Z,16.53
2023-05-10T07:23:45.256Z,16.35
2023-05-10T07:27:11.212Z,16.46
2023-05-10T07:29:40.940Z,16.58
2023-05-10T07:31:07.942Z,16.56
2023-05-10T07:32:40.751Z,16.56
2023-05-10T07:34:05.733Z,16.65
2023-05-10T07:35:36.608Z,16.65
2023-05-10T07:38:40.903Z,16.51
2023-05-10T07:40:28.742Z,16.54
2023-05-10T07:43:18.305Z,16.49
2023-05-10T07:45:37.222Z,16.39
2023-05-10T07:50:37.229Z,16.54
2023-05-10T07:52:24.043Z,16.58
2023-05-10T07:53:53.979Z,16.50
2023-05-10T07:56:14.578Z,16.58
2023-05-10T07:58:22.091Z,16.66
2023-05-10T08:00:41.928Z,16.74
2023-05-10T08:02:12.915Z,16.91
2023-05-10T08:04:01.910Z,16.78
2023-05-10T08:06:17.438Z,16.81
2023-05-10T08:09:40.500Z,16.78
2023-05-10T08:11:35.455Z,16.89
2023-05-10T08:15:32.962Z,16.87
2023-05-10T08:19:09.006Z,16.78
2023-05-10T08:21:09.385Z,16.72
2023-05-10T08:24:00.911Z,16.75
2023-05-10T08:30:59.543Z,16.87
2023-05-10T08:35:35.484Z,16.74
2023-05-10T08:38:50.325Z,16.72
2023-05-10T08:40:19.204Z,16.75
2023-05-10T08:42:21.931Z,16.58
2023-05-10T08:47:03.348Z,16.64
2023-05-10T08:52:28.876Z,17.06
2023-05-10T08:56:30.673Z,17.05
2023-05-10T08:58:22.571Z,16.96
2023-05-10T09:00:13.510Z,17.05
2023-05-10T09:03:20.734Z,16.91
2023-05-10T09:04:49.722Z,16.76
2023-05-10T09:09:19.100Z,16.79
2023-05-10T09:11:05.925Z,16.89
2023-05-10T09:13:26.475Z,16.89
2023-05-10T09:17:32.394Z,17.16
2023-05-10T09:21:25.974Z,17.14
2023-05-10T09:23:51.406Z,16.99
2023-05-10T09:25:52.110Z,16.99
2023-05-10T09:27:42.074Z,16.97
2023-05-10T09:31:02.297Z,17.11
2023-05-10T09:33:28.298Z,17.02
2023-05-10T09:36:56.217Z,17.01
2023-05-10T09:38:44.081Z,16.97
2023-05-10T09:40:12.962Z,16.93
2023-05-10T09:42:17.626Z,17.09
2023-05-10T09:44:03.793Z,17.29
2023-05-10T09:48:27.803Z,17.38
2023-05-10T09:53:55.848Z,17.48
2023-05-10T09:55:26.666Z,17.68
2023-05-10T09:57:46.305Z,17.79
2023-05-10T10:00:53.528Z,18.05
2023-05-10T10:03:53.119Z,17.94
2023-05-10T10:06:46.321Z,17.87
2023-05-10T10:12:51.436Z,17.48
2023-05-10T10:15:21.018Z,17.44
2023-05-10T10:17:40.181Z,17.54
2023-05-10T10:19:10.988Z,17.59
2023-05-10T10:20:11.745Z,17.49
2023-05-10T10:21:29.965Z,17.44
2023-05-10T10:22:09.020Z,17.56
2023-05-10T10:24:59.523Z,17.54
2023-05-10T10:28:17.902Z,17.67
2023-05-10T10:31:39.677Z,17.89
2023-05-10T10:35:16.220Z,17.83
2023-05-10T10:36:47.030Z,17.92
2023-05-10T10:38:46.098Z,17.95
2023-05-10T10:45:32.468Z,18.34
2023-05-10T10:47:04.395Z,18.49
2023-05-10T10:54:05.565Z,18.66
2023-05-10T10:55:33.630Z,18.63
2023-05-10T10:57:55.396Z,18.77
2023-05-10T10:59:23.454Z,18.70
2023-05-10T11:01:15.708Z,18.70
2023-05-10T11:02:45.388Z,18.78
2023-05-10T11:04:43.674Z,19.02
2023-05-10T11:07:55.179Z,20.10
2023-05-10T11:09:21.096Z,20.37
2023-05-10T11:10:50.819Z,20.47
2023-05-10T11:14:28.295Z,20.51
2023-05-10T11:16:24.760Z,20.52
2023-05-10T11:19:16.598Z,19.47
2023-05-10T11:20:44.618Z,19.18
2023-05-10T11:22:16.249Z,18.90
2023-05-10T11:23:44.460Z,18.99
2023-05-10T11:27:02.039Z,19.11
2023-05-10T11:33:48.307Z,19.34
2023-05-10T11:36:05.107Z,19.91
2023-05-10T11:37:52.981Z,20.13
2023-05-10T11:40:21.522Z,20.00
2023-05-10T11:41:53.425Z,19.76
2023-05-10T11:43:45.092Z,19.95
2023-05-10T11:45:30.988Z,20.03
2023-05-10T11:47:00.923Z,20.06
2023-05-10T11:48:29.924Z,20.26
2023-05-10T11:50:22.267Z,20.32
2023-05-10T11:51:30.711Z,20.14
2023-05-10T11:52:59.879Z,20.26
2023-05-10T11:54:59.843Z,20.21
2023-05-10T11:56:31.496Z,20.36
2023-05-10T11:57:59.749Z,20.32
2023-05-10T11:58:58.136Z,20.28
2023-05-10T11:59:58.056Z,20.16
2023-05-10T12:01:28.250Z,20.09
2023-05-10T12:02:56.359Z,19.85
2023-05-10T12:05:30.996Z,19.92
2023-05-10T12:07:33.032Z,19.81
2023-05-10T12:10:53.545Z,19.54
2023-05-10T12:12:55.550Z,19.62
2023-05-10T12:21:49.334Z,19.41
2023-05-10T12:29:13.215Z,19.70
2023-05-10T12:30:42.197Z,19.69
2023-05-10T12:33:10.252Z,19.95
2023-05-10T12:35:58.872Z,20.32
2023-05-10T12:38:47.766Z,20.32
2023-05-10T12:41:07.217Z,19.94
2023-05-10T12:45:25.641Z,19.79
2023-05-10T12:47:25.629Z,19.77
2023-05-10T12:50:44.784Z,19.76
2023-05-10T12:52:20.925Z,19.71
2023-05-10T12:55:28.327Z,20.97
2023-05-10T12:58:31.527Z,21.50
2023-05-10T13:02:47.477Z,21.72
2023-05-10T13:04:48.762Z,21.69
2023-05-10T13:10:21.997Z,21.73
2023-05-10T13:14:10.840Z,21.42
2023-05-10T13:17:22.601Z,21.58
2023-05-10T13:19:42.280Z,22.62
2023-05-10T13:22:11.671Z,23.24
2023-05-10T13:25:29.627Z,22.88
2023-05-10T13:27:00.501Z,22.57
2023-05-10T13:29:00.139Z,22.59
2023-05-10T13:30:57.216Z,22.47
2023-05-10T13:34:34.588Z,22.30
2023-05-10T13:36:34.468Z,22.25
2023-05-10T13:38:52.610Z,21.88
2023-05-10T13:42:13.373Z,21.50
2023-05-10T13:44:02.036Z,21.42
2023-05-10T13:49:17.440Z,23.84
2023-05-10T13:52:07.234Z,26.28
2023-05-10T13:54:10.864Z,27.42
2023-05-10T13:57:09.062Z,26.73
2023-05-10T14:01:50.678Z,26.19
2023-05-10T14:03:17.733Z,25.21
2023-05-10T14:08:57.425Z,23.10
2023-05-10T14:17:06.393Z,21.69
2023-05-10T14:25:38.374Z,22.45
2023-05-10T14:27:36.226Z,22.07
2023-05-10T14:31:24.712Z,21.57
2023-05-10T14:33:22.628Z,21.46
2023-05-10T14:34:53.464Z,21.37
2023-05-10T14:38:26.465Z,20.95
2023-05-10T14:41:43.594Z,20.87
2023-05-10T14:45:03.423Z,20.81
2023-05-10T14:46:30.970Z,21.11
2023-05-10T14:49:46.467Z,20.78
2023-05-10T14:53:05.984Z,21.03
2023-05-10T14:55:43.425Z,22.33
2023-05-10T14:57:13.010Z,22.51
2023-05-10T14:58:44.811Z,22.33
2023-05-10T15:00:13.885Z,22.41
2023-05-10T15:01:13.160Z,22.35
2023-05-10T15:02:13.166Z,22.28
2023-05-10T15:03:42.224Z,22.13
2023-05-10T15:06:00.680Z,21.67
2023-05-10T15:07:58.758Z,21.48
2023-05-10T15:10:27.022Z,21.42
2023-05-10T15:14:21.060Z,22.59
2023-05-10T15:20:53.068Z,22.44
2023-05-10T15:25:17.703Z,21.93
2023-05-10T15:27:16.091Z,22.08
2023-05-10T15:29:35.120Z,22.32
2023-05-10T15:31:35.728Z,22.36
2023-05-10T15:33:05.634Z,22.50
2023-05-10T15:34:55.742Z,22.23
2023-05-10T15:40:13.234Z,21.83
2023-05-10T15:42:48.180Z,21.96
2023-05-10T15:45:37.349Z,21.98
2023-05-10T15:52:46.553Z,21.82
2023-05-10T15:55:37.429Z,21.83
2023-05-10T16:01:02.183Z,21.67
2023-05-10T16:08:47.637Z,21.37
2023-05-10T16:12:32.724Z,21.62
2023-05-10T16:15:02.654Z,21.58
2023-05-10T16:17:21.101Z,21.66
2023-05-10T16:18:50.118Z,21.70
2023-05-10T16:24:28.540Z,21.79
2023-05-10T16:25:55.228Z,21.57
2023-05-10T16:27:25.034Z,21.50
2023-05-10T16:28:56.883Z,21.48
2023-05-10T16:33:58.623Z,21.30
2023-05-10T16:35:54.688Z,21.17
2023-05-10T16:37:24.631Z,21.14
2023-05-10T16:38:54.540Z,20.95
2023-05-10T16:41:12.268Z,20.97
2023-05-10T16:43:40.032Z,21.00
2023-05-10T16:46:58.189Z,20.95
2023-05-10T16:51:24.834Z,20.84
2023-05-10T16:53:24.557Z,20.95
2023-05-10T16:54:52.860Z,20.95
2023-05-10T16:56:24.025Z,20.96
2023-05-10T16:58:42.383Z,21.03
2023-05-10T17:00:34.026Z,21.12
2023-05-10T17:02:01.058Z,21.11
2023-05-10T17:04:29.801Z,21.06
2023-05-10T17:11:02.410Z,20.77
2023-05-10T17:14:27.139Z,20.52
2023-05-10T17:16:30.289Z,20.55
2023-05-10T17:27:33.070Z,20.25
2023-05-10T17:29:33.078Z,20.14
2023-05-10T17:31:51.527Z,20.00
2023-05-10T17:33:22.122Z,19.99
2023-05-10T17:36:02.712Z,19.92
2023-05-10T17:38:40.188Z,19.89
2023-05-10T17:40:41.709Z,19.85
2023-05-10T17:43:57.418Z,19.86
2023-05-10T17:50:51.668Z,19.76
2023-05-10T17:52:53.035Z,19.71
2023-05-10T17:54:40.199Z,19.69
2023-05-10T17:55:49.085Z,19.66
2023-05-10T17:57:54.019Z,19.66
2023-05-10T17:59:23.418Z,19.58
2023-05-10T18:00:56.685Z,19.54
2023-05-10T18:02:27.113Z,19.51
2023-05-10T18:04:48.573Z,19.52
2023-05-10T18:06:39.323Z,19.52
2023-05-10T18:09:11.280Z,19.49
2023-05-10T18:15:59.778Z,19.40
2023-05-10T18:17:49.566Z,19.39
2023-05-10T18:20:11.187Z,19.31
2023-05-10T18:21:42.089Z,19.29
2023-05-10T18:24:00.744Z,19.27
2023-05-10T18:27:31.772Z,19.22
2023-05-10T18:29:29.703Z,19.22
2023-05-10T18:33:13.255Z,19.14
2023-05-10T18:34:40.538Z,19.09
2023-05-10T18:37:58.454Z,19.00
2023-05-10T18:39:25.372Z,18.99
2023-05-10T18:40:54.484Z,18.96
2023-05-10T18:42:26.302Z,18.93
2023-05-10T18:43:54.638Z,18.95
2023-05-10T18:45:23.135Z,18.89
2023-05-10T18:47:23.020Z,18.89
2023-05-10T18:48:50.781Z,18.86
2023-05-10T18:50:19.207Z,18.86
2023-05-10T18:51:19.188Z,18.84
2023-05-10T18:52:19.171Z,18.84
2023-05-10T18:54:47.262Z,18.77
2023-05-10T18:56:45.442Z,18.73
2023-05-10T18:59:15.216Z,18.65
2023-05-10T19:03:51.558Z,18.52
2023-05-10T19:06:49.200Z,18.44
2023-05-10T19:08:40.848Z,18.43
2023-05-10T19:11:54.634Z,18.37
2023-05-10T19:13:53.450Z,18.33
2023-05-10T19:15:23.990Z,18.29
2023-05-10T19:17:24.535Z,18.25
2023-05-10T19:21:39.099Z,18.18
2023-05-10T19:26:41.582Z,18.08
2023-05-10T19:28:10.904Z,18.07
2023-05-10T19:30:41.226Z,18.05
2023-05-10T19:32:42.198Z,18.01
2023-05-10T19:34:43.078Z,18.01
2023-05-10T19:38:01.224Z,17.94
2023-05-10T19:40:53.442Z,17.90
2023-05-10T19:47:02.430Z,17.83
2023-05-10T19:49:01.498Z,17.80
2023-05-10T19:50:33.356Z,17.79
2023-05-10T19:52:00.576Z,17.76
2023-05-10T19:54:34.288Z,17.72
2023-05-10T19:56:51.480Z,17.70
2023-05-10T19:59:39.723Z,17.65
2023-05-10T20:01:10.490Z,17.65
2023-05-10T20:04:57.552Z,17.60
2023-05-10T20:07:17.285Z,17.56
2023-05-10T20:10:50.253Z,17.56
2023-05-10T20:13:40.403Z,17.57
2023-05-10T20:18:20.523Z,17.57
2023-05-10T20:20:19.081Z,17.56
2023-05-10T20:21:49.510Z,17.54
2023-05-10T20:22:48.723Z,17.54
2023-05-10T20:23:48.686Z,17.52
2023-05-10T20:24:48.686Z,17.52
2023-05-10T20:32:51.806Z,17.33
2023-05-10T20:34:20.712Z,17.33
2023-05-10T20:37:08.319Z,17.30
2023-05-10T20:42:34.482Z,17.24
2023-05-10T20:45:39.845Z,17.23
2023-05-10T20:48:00.930Z,17.24
2023-05-10T20:50:07.893Z,17.24
2023-05-10T20:53:35.914Z,17.23
2023-05-10T20:55:03.607Z,17.22
2023-05-10T20:56:54.582Z,17.22
2023-05-10T20:59:14.516Z,17.23
2023-05-10T21:00:43.976Z,17.24
2023-05-10T21:02:32.637Z,17.26
2023-05-10T21:04:02.599Z,17.30
2023-05-10T21:05:34.520Z,17.33
2023-05-10T21:09:16.648Z,17.31
2023-05-10T21:10:14.561Z,17.33
2023-05-10T21:11:15.260Z,17.31
2023-05-10T21:12:14.493Z,17.31
2023-05-10T21:13:45.674Z,17.30
2023-05-10T21:16:47.252Z,17.26
2023-05-10T21:18:19.093Z,17.26
2023-05-10T21:21:20.245Z,17.24
2023-05-10T21:23:48.153Z,17.24
2023-05-10T21:25:18.565Z,17.24
2023-05-10T21:26:47.983Z,17.26
2023-05-10T21:29:07.555Z,17.24
2023-05-10T21:31:10.479Z,17.24
2023-05-10T21:34:44.481Z,17.22
2023-05-10T21:38:29.567Z,17.20
2023-05-10T21:43:55.189Z,17.14
2023-05-10T21:46:22.805Z,17.14
2023-05-10T21:47:51.854Z,17.14
2023-05-10T21:49:20.976Z,17.14
2023-05-10T21:54:54.067Z,17.09
2023-05-10T21:58:20.033Z,17.09
2023-05-10T22:00:28.913Z,17.11
2023-05-10T22:02:27.211Z,17.11
2023-05-10T22:05:28.291Z,17.11
2023-05-10T22:06:57.718Z,17.12
2023-05-10T22:09:26.421Z,17.05
2023-05-10T22:11:25.621Z,17.05
2023-05-10T22:13:59.460Z,17.04
2023-05-10T22:15:09.356Z,17.04
2023-05-10T22:16:00.419Z,17.04
2023-05-10T22:19:59.189Z,17.01
2023-05-10T22:22:30.140Z,17.04
2023-05-10T22:26:51.373Z,16.99
2023-05-10T22:28:52.518Z,16.99
2023-05-10T22:31:14.236Z,16.97
2023-05-10T22:32:42.162Z,16.96
2023-05-10T22:35:10.231Z,16.93
2023-05-10T22:36:41.085Z,16.93
2023-05-10T22:48:20.897Z,16.87
2023-05-10T22:49:51.768Z,16.87
2023-05-10T22:52:56.256Z,16.86
2023-05-10T22:55:21.418Z,16.89
2023-05-10T23:00:28.363Z,16.87
2023-05-10T23:07:04.430Z,16.89
2023-05-10T23:10:25.813Z,16.89
2023-05-10T23:13:40.431Z,16.90
2023-05-10T23:15:42.280Z,16.90
2023-05-10T23:20:29.189Z,16.89
2023-05-10T23:22:25.070Z,16.89
2023-05-10T23:33:35.868Z,16.81
2023-05-10T23:36:34.749Z,16.79
2023-05-10T23:38:05.578Z,16.79
2023-05-10T23:41:58.783Z,16.79
2023-05-10T23:44:19.307Z,16.78
2023-05-10T23:47:43.157Z,16.76
2023-05-10T23:49:12.952Z,16.76
2023-05-10T23:50:40.928Z,16.76
2023-05-10T23:52:10.877Z,16.76
2023-05-10T23:54:08.720Z,16.75
2023-05-10T23:56:07.480Z,16.75
2023-05-10T23:57:56.232Z,16.75
